sensor_id;sensor_type;location;lat;lon;timestamp;P1;durP1;ratioP1;P2;durP2;ratioP2
86007;SDS011;76587;41.936;25.550;2024-03-23T00:53:48;14.85;;;6.00;;
86007;SDS011;76587;41.936;25.550;2024-03-23T00:56:13;13.27;;;4.68;;
86007;SDS011;76587;41.936;25.550;2024-03-23T00:58:39;15.95;;;6.68;;
86007;SDS011;76587;41.936;25.550;2024-03-23T01:01:04;22.50;;;8.68;;
86007;SDS011;76587;41.936;25.550;2024-03-23T01:03:30;15.73;;;6.90;;
86007;SDS011;76587;41.936;25.550;2024-03-23T01:06:01;20.85;;;8.75;;
86007;SDS011;76587;41.936;25.550;2024-03-23T01:08:26;24.50;;;9.05;;
86007;SDS011;76587;41.936;25.550;2024-03-23T01:13:21;21.50;;;8.25;;
86007;SDS011;76587;41.936;25.550;2024-03-23T01:15:48;17.02;;;8.07;;
86007;SDS011;76587;41.936;25.550;2024-03-23T01:18:14;22.52;;;9.55;;
86007;SDS011;76587;41.936;25.550;2024-03-23T01:20:39;23.30;;;9.15;;
86007;SDS011;76587;41.936;25.550;2024-03-23T01:23:05;15.65;;;7.05;;
86007;SDS011;76587;41.936;25.550;2024-03-23T01:25:32;14.60;;;5.72;;
86007;SDS011;76587;41.936;25.550;2024-03-23T01:27:58;15.30;;;7.82;;
86007;SDS011;76587;41.936;25.550;2024-03-23T01:30:26;25.52;;;11.95;;
86007;SDS011;76587;41.936;25.550;2024-03-23T01:32:52;29.27;;;11.45;;
86007;SDS011;76587;41.936;25.550;2024-03-23T01:35:17;33.63;;;12.55;;
86007;SDS011;76587;41.936;25.550;2024-03-23T01:37:43;35.90;;;11.57;;
86007;SDS011;76587;41.936;25.550;2024-03-23T01:40:08;21.20;;;8.85;;
86007;SDS011;76587;41.936;25.550;2024-03-23T01:42:34;27.77;;;10.57;;
86007;SDS011;76587;41.936;25.550;2024-03-23T01:44:59;20.38;;;8.32;;
86007;SDS011;76587;41.936;25.550;2024-03-23T01:47:25;14.85;;;6.00;;
86007;SDS011;76587;41.936;25.550;2024-03-23T01:49:51;13.07;;;6.20;;
86007;SDS011;76587;41.936;25.550;2024-03-23T01:52:17;16.15;;;5.70;;
86007;SDS011;76587;41.936;25.550;2024-03-23T01:54:43;12.00;;;6.82;;
86007;SDS011;76587;41.936;25.550;2024-03-23T01:57:09;16.23;;;6.75;;
86007;SDS011;76587;41.936;25.550;2024-03-23T01:59:35;13.75;;;6.43;;
86007;SDS011;76587;41.936;25.550;2024-03-23T02:02:01;18.80;;;7.30;;
86007;SDS011;76587;41.936;25.550;2024-03-23T02:04:26;19.02;;;7.45;;
86007;SDS011;76587;41.936;25.550;2024-03-23T02:06:51;17.45;;;7.15;;
86007;SDS011;76587;41.936;25.550;2024-03-23T02:09:19;14.38;;;6.05;;
86007;SDS011;76587;41.936;25.550;2024-03-23T02:11:44;13.57;;;5.68;;
86007;SDS011;76587;41.936;25.550;2024-03-23T02:14:12;14.18;;;6.18;;
86007;SDS011;76587;41.936;25.550;2024-03-23T02:16:38;9.80;;;4.05;;
86007;SDS011;76587;41.936;25.550;2024-03-23T02:19:03;10.18;;;4.97;;
86007;SDS011;76587;41.936;25.550;2024-03-23T02:21:31;13.18;;;5.07;;
86007;SDS011;76587;41.936;25.550;2024-03-23T02:23:59;10.15;;;4.18;;
86007;SDS011;76587;41.936;25.550;2024-03-23T02:26:25;13.55;;;5.63;;
86007;SDS011;76587;41.936;25.550;2024-03-23T02:28:51;15.77;;;5.75;;
86007;SDS011;76587;41.936;25.550;2024-03-23T02:31:16;17.60;;;6.65;;
86007;SDS011;76587;41.936;25.550;2024-03-23T02:33:42;14.32;;;5.82;;
86007;SDS011;76587;41.936;25.550;2024-03-23T02:36:07;8.05;;;3.38;;
86007;SDS011;76587;41.936;25.550;2024-03-23T02:38:33;13.98;;;4.97;;
86007;SDS011;76587;41.936;25.550;2024-03-23T02:41:07;18.05;;;6.30;;
86007;SDS011;76587;41.936;25.550;2024-03-23T02:43:32;20.13;;;8.55;;
86007;SDS011;76587;41.936;25.550;2024-03-23T02:45:58;30.60;;;11.90;;
86007;SDS011;76587;41.936;25.550;2024-03-23T02:48:23;27.60;;;9.95;;
86007;SDS011;76587;41.936;25.550;2024-03-23T02:50:49;24.27;;;8.75;;
86007;SDS011;76587;41.936;25.550;2024-03-23T02:53:15;29.25;;;9.63;;
86007;SDS011;76587;41.936;25.550;2024-03-23T02:55:43;25.83;;;10.48;;
86007;SDS011;76587;41.936;25.550;2024-03-23T02:58:08;21.10;;;8.25;;
86007;SDS011;76587;41.936;25.550;2024-03-23T03:00:33;15.40;;;6.47;;
86007;SDS011;76587;41.936;25.550;2024-03-23T03:02:59;12.70;;;4.90;;
86007;SDS011;76587;41.936;25.550;2024-03-23T03:05:24;10.63;;;4.20;;
86007;SDS011;76587;41.936;25.550;2024-03-23T03:07:50;12.07;;;4.05;;
86007;SDS011;76587;41.936;25.550;2024-03-23T03:10:15;14.93;;;5.85;;
86007;SDS011;76587;41.936;25.550;2024-03-23T03:12:41;9.80;;;4.00;;
86007;SDS011;76587;41.936;25.550;2024-03-23T03:15:07;10.45;;;3.67;;
86007;SDS011;76587;41.936;25.550;2024-03-23T03:17:34;8.10;;;2.85;;
86007;SDS011;76587;41.936;25.550;2024-03-23T03:20:00;8.35;;;4.40;;
86007;SDS011;76587;41.936;25.550;2024-03-23T03:22:25;7.43;;;3.10;;
86007;SDS011;76587;41.936;25.550;2024-03-23T03:24:50;7.70;;;3.42;;
86007;SDS011;76587;41.936;25.550;2024-03-23T03:27:18;9.77;;;4.20;;
86007;SDS011;76587;41.936;25.550;2024-03-23T03:29:44;12.38;;;5.25;;
86007;SDS011;76587;41.936;25.550;2024-03-23T03:32:09;10.10;;;4.55;;
86007;SDS011;76587;41.936;25.550;2024-03-23T03:34:35;8.32;;;3.35;;
86007;SDS011;76587;41.936;25.550;2024-03-23T03:37:03;10.10;;;5.00;;
86007;SDS011;76587;41.936;25.550;2024-03-23T03:39:29;9.82;;;4.40;;
86007;SDS011;76587;41.936;25.550;2024-03-23T03:41:56;12.68;;;3.80;;
86007;SDS011;76587;41.936;25.550;2024-03-23T03:44:25;11.45;;;3.97;;
86007;SDS011;76587;41.936;25.550;2024-03-23T03:46:51;9.18;;;4.25;;
86007;SDS011;76587;41.936;25.550;2024-03-23T03:49:16;9.00;;;4.78;;
86007;SDS011;76587;41.936;25.550;2024-03-23T03:51:41;7.70;;;3.67;;
86007;SDS011;76587;41.936;25.550;2024-03-23T03:54:07;9.65;;;4.38;;
86007;SDS011;76587;41.936;25.550;2024-03-23T03:56:35;9.57;;;4.55;;
86007;SDS011;76587;41.936;25.550;2024-03-23T03:59:00;9.25;;;4.45;;
86007;SDS011;76587;41.936;25.550;2024-03-23T04:01:26;13.20;;;5.20;;
86007;SDS011;76587;41.936;25.550;2024-03-23T04:03:51;10.73;;;4.95;;
86007;SDS011;76587;41.936;25.550;2024-03-23T04:06:20;15.05;;;6.30;;
86007;SDS011;76587;41.936;25.550;2024-03-23T04:08:46;13.85;;;5.55;;
86007;SDS011;76587;41.936;25.550;2024-03-23T04:11:11;10.02;;;5.07;;
86007;SDS011;76587;41.936;25.550;2024-03-23T04:13:37;9.73;;;4.50;;
86007;SDS011;76587;41.936;25.550;2024-03-23T04:16:02;9.50;;;4.90;;
86007;SDS011;76587;41.936;25.550;2024-03-23T04:18:28;10.52;;;5.03;;
86007;SDS011;76587;41.936;25.550;2024-03-23T04:20:53;9.93;;;5.72;;
86007;SDS011;76587;41.936;25.550;2024-03-23T04:23:19;11.88;;;5.68;;
86007;SDS011;76587;41.936;25.550;2024-03-23T04:25:44;14.23;;;5.43;;
86007;SDS011;76587;41.936;25.550;2024-03-23T04:28:09;8.60;;;4.55;;
86007;SDS011;76587;41.936;25.550;2024-03-23T04:30:35;7.82;;;4.68;;
86007;SDS011;76587;41.936;25.550;2024-03-23T04:33:04;10.68;;;4.95;;
86007;SDS011;76587;41.936;25.550;2024-03-23T04:35:33;10.75;;;4.40;;
86007;SDS011;76587;41.936;25.550;2024-03-23T04:37:58;19.10;;;5.93;;
86007;SDS011;76587;41.936;25.550;2024-03-23T04:40:24;10.40;;;4.50;;
86007;SDS011;76587;41.936;25.550;2024-03-23T04:42:51;12.00;;;5.53;;
86007;SDS011;76587;41.936;25.550;2024-03-23T04:45:16;12.05;;;5.70;;
86007;SDS011;76587;41.936;25.550;2024-03-23T04:47:41;12.75;;;5.15;;
86007;SDS011;76587;41.936;25.550;2024-03-23T04:50:09;15.85;;;6.22;;
86007;SDS011;76587;41.936;25.550;2024-03-23T04:52:41;9.55;;;5.13;;
86007;SDS011;76587;41.936;25.550;2024-03-23T04:55:07;18.67;;;7.57;;
86007;SDS011;76587;41.936;25.550;2024-03-23T04:57:32;19.17;;;7.13;;
86007;SDS011;76587;41.936;25.550;2024-03-23T04:59:58;15.65;;;6.15;;
86007;SDS011;76587;41.936;25.550;2024-03-23T05:02:23;23.80;;;8.32;;
86007;SDS011;76587;41.936;25.550;2024-03-23T05:04:52;18.73;;;7.78;;
86007;SDS011;76587;41.936;25.550;2024-03-23T05:07:17;19.10;;;8.82;;
86007;SDS011;76587;41.936;25.550;2024-03-23T05:09:43;17.40;;;7.65;;
86007;SDS011;76587;41.936;25.550;2024-03-23T05:12:08;21.00;;;7.95;;
86007;SDS011;76587;41.936;25.550;2024-03-23T05:14:34;17.63;;;8.05;;
86007;SDS011;76587;41.936;25.550;2024-03-23T05:17:01;16.65;;;7.40;;
86007;SDS011;76587;41.936;25.550;2024-03-23T05:19:28;15.98;;;7.97;;
86007;SDS011;76587;41.936;25.550;2024-03-23T05:21:53;19.23;;;8.38;;
86007;SDS011;76587;41.936;25.550;2024-03-23T05:24:18;15.63;;;7.15;;
86007;SDS011;76587;41.936;25.550;2024-03-23T05:26:44;12.38;;;6.68;;
86007;SDS011;76587;41.936;25.550;2024-03-23T05:29:09;20.90;;;9.02;;
86007;SDS011;76587;41.936;25.550;2024-03-23T05:31:38;20.92;;;9.10;;
86007;SDS011;76587;41.936;25.550;2024-03-23T05:34:06;17.98;;;10.52;;
86007;SDS011;76587;41.936;25.550;2024-03-23T05:36:34;24.45;;;11.93;;
86007;SDS011;76587;41.936;25.550;2024-03-23T05:39:01;25.73;;;11.90;;
86007;SDS011;76587;41.936;25.550;2024-03-23T05:41:26;24.67;;;12.23;;
86007;SDS011;76587;41.936;25.550;2024-03-23T05:43:52;17.45;;;9.93;;
86007;SDS011;76587;41.936;25.550;2024-03-23T05:46:17;21.10;;;10.60;;
86007;SDS011;76587;41.936;25.550;2024-03-23T05:48:43;19.13;;;8.82;;
86007;SDS011;76587;41.936;25.550;2024-03-23T05:51:08;24.83;;;12.45;;
86007;SDS011;76587;41.936;25.550;2024-03-23T05:53:34;31.50;;;16.85;;
86007;SDS011;76587;41.936;25.550;2024-03-23T05:56:00;28.83;;;16.13;;
86007;SDS011;76587;41.936;25.550;2024-03-23T05:58:28;28.10;;;13.05;;
86007;SDS011;76587;41.936;25.550;2024-03-23T06:00:57;20.92;;;11.15;;
86007;SDS011;76587;41.936;25.550;2024-03-23T06:03:25;20.70;;;10.43;;
86007;SDS011;76587;41.936;25.550;2024-03-23T06:05:51;22.05;;;11.07;;
86007;SDS011;76587;41.936;25.550;2024-03-23T06:08:18;12.00;;;7.50;;
86007;SDS011;76587;41.936;25.550;2024-03-23T06:10:44;11.18;;;6.72;;
86007;SDS011;76587;41.936;25.550;2024-03-23T06:13:11;11.38;;;6.85;;
86007;SDS011;76587;41.936;25.550;2024-03-23T06:15:36;9.23;;;5.53;;
86007;SDS011;76587;41.936;25.550;2024-03-23T06:18:03;11.95;;;6.22;;
86007;SDS011;76587;41.936;25.550;2024-03-23T06:20:33;10.15;;;5.95;;
86007;SDS011;76587;41.936;25.550;2024-03-23T06:22:59;12.95;;;6.60;;
86007;SDS011;76587;41.936;25.550;2024-03-23T06:25:28;9.00;;;6.78;;
86007;SDS011;76587;41.936;25.550;2024-03-23T06:27:54;9.73;;;6.72;;
86007;SDS011;76587;41.936;25.550;2024-03-23T06:30:20;13.07;;;8.20;;
86007;SDS011;76587;41.936;25.550;2024-03-23T06:32:48;14.43;;;8.63;;
86007;SDS011;76587;41.936;25.550;2024-03-23T06:35:14;12.10;;;9.23;;
86007;SDS011;76587;41.936;25.550;2024-03-23T06:37:39;13.43;;;8.18;;
86007;SDS011;76587;41.936;25.550;2024-03-23T06:40:06;10.43;;;7.90;;
86007;SDS011;76587;41.936;25.550;2024-03-23T06:42:34;14.63;;;8.30;;
86007;SDS011;76587;41.936;25.550;2024-03-23T06:45:01;12.10;;;8.38;;
86007;SDS011;76587;41.936;25.550;2024-03-23T06:47:26;15.55;;;9.73;;
86007;SDS011;76587;41.936;25.550;2024-03-23T06:49:51;15.70;;;9.00;;
86007;SDS011;76587;41.936;25.550;2024-03-23T06:52:17;14.90;;;8.98;;
86007;SDS011;76587;41.936;25.550;2024-03-23T06:54:42;11.48;;;7.90;;
86007;SDS011;76587;41.936;25.550;2024-03-23T06:57:09;13.43;;;9.13;;
86007;SDS011;76587;41.936;25.550;2024-03-23T06:59:36;15.00;;;9.40;;
86007;SDS011;76587;41.936;25.550;2024-03-23T07:02:03;12.10;;;9.02;;
86007;SDS011;76587;41.936;25.550;2024-03-23T07:04:29;11.38;;;8.65;;
86007;SDS011;76587;41.936;25.550;2024-03-23T07:06:54;14.05;;;9.05;;
86007;SDS011;76587;41.936;25.550;2024-03-23T07:09:20;13.65;;;9.55;;
86007;SDS011;76587;41.936;25.550;2024-03-23T07:11:50;12.05;;;9.55;;
86007;SDS011;76587;41.936;25.550;2024-03-23T07:14:15;14.00;;;8.85;;
86007;SDS011;76587;41.936;25.550;2024-03-23T07:16:41;14.43;;;9.48;;
86007;SDS011;76587;41.936;25.550;2024-03-23T07:19:06;14.02;;;9.13;;
86007;SDS011;76587;41.936;25.550;2024-03-23T07:21:31;12.30;;;9.57;;
86007;SDS011;76587;41.936;25.550;2024-03-23T07:23:57;14.32;;;8.25;;
86007;SDS011;76587;41.936;25.550;2024-03-23T07:26:22;18.13;;;9.13;;
86007;SDS011;76587;41.936;25.550;2024-03-23T07:28:48;11.70;;;8.77;;
86007;SDS011;76587;41.936;25.550;2024-03-23T07:31:14;11.20;;;8.32;;
86007;SDS011;76587;41.936;25.550;2024-03-23T07:33:46;15.25;;;9.43;;
86007;SDS011;76587;41.936;25.550;2024-03-23T07:36:13;13.05;;;8.68;;
86007;SDS011;76587;41.936;25.550;2024-03-23T07:38:42;12.10;;;9.20;;
86007;SDS011;76587;41.936;25.550;2024-03-23T07:41:10;16.50;;;8.80;;
86007;SDS011;76587;41.936;25.550;2024-03-23T07:43:40;11.40;;;9.40;;
86007;SDS011;76587;41.936;25.550;2024-03-23T07:46:05;11.30;;;7.60;;
86007;SDS011;76587;41.936;25.550;2024-03-23T07:48:31;12.23;;;9.35;;
86007;SDS011;76587;41.936;25.550;2024-03-23T07:51:04;12.30;;;8.95;;
86007;SDS011;76587;41.936;25.550;2024-03-23T07:53:31;14.40;;;9.60;;
86007;SDS011;76587;41.936;25.550;2024-03-23T07:58:27;15.00;;;9.63;;
86007;SDS011;76587;41.936;25.550;2024-03-23T08:00:53;14.98;;;10.48;;
86007;SDS011;76587;41.936;25.550;2024-03-23T08:03:21;17.00;;;9.23;;
86007;SDS011;76587;41.936;25.550;2024-03-23T08:05:47;20.27;;;11.38;;
86007;SDS011;76587;41.936;25.550;2024-03-23T08:08:13;20.25;;;11.68;;
86007;SDS011;76587;41.936;25.550;2024-03-23T08:10:51;13.48;;;10.93;;
86007;SDS011;76587;41.936;25.550;2024-03-23T08:13:17;12.23;;;9.55;;
86007;SDS011;76587;41.936;25.550;2024-03-23T08:15:43;13.75;;;11.38;;
86007;SDS011;76587;41.936;25.550;2024-03-23T08:18:11;16.33;;;10.48;;
86007;SDS011;76587;41.936;25.550;2024-03-23T08:20:37;16.50;;;10.45;;
86007;SDS011;76587;41.936;25.550;2024-03-23T08:23:02;17.35;;;10.43;;
86007;SDS011;76587;41.936;25.550;2024-03-23T08:25:35;23.58;;;13.73;;
86007;SDS011;76587;41.936;25.550;2024-03-23T08:28:01;17.48;;;10.52;;
86007;SDS011;76587;41.936;25.550;2024-03-23T08:30:29;16.10;;;11.70;;
86007;SDS011;76587;41.936;25.550;2024-03-23T08:32:55;12.10;;;9.18;;
86007;SDS011;76587;41.936;25.550;2024-03-23T08:35:20;11.82;;;8.95;;
86007;SDS011;76587;41.936;25.550;2024-03-23T08:37:45;10.20;;;8.65;;
86007;SDS011;76587;41.936;25.550;2024-03-23T08:40:11;12.38;;;9.65;;
86007;SDS011;76587;41.936;25.550;2024-03-23T08:42:37;10.40;;;9.23;;
86007;SDS011;76587;41.936;25.550;2024-03-23T08:45:02;11.52;;;8.85;;
86007;SDS011;76587;41.936;25.550;2024-03-23T08:47:28;9.93;;;8.90;;
86007;SDS011;76587;41.936;25.550;2024-03-23T08:50:01;12.68;;;8.80;;
86007;SDS011;76587;41.936;25.550;2024-03-23T08:52:34;11.18;;;9.02;;
86007;SDS011;76587;41.936;25.550;2024-03-23T08:55:00;11.48;;;9.32;;
86007;SDS011;76587;41.936;25.550;2024-03-23T08:57:26;11.23;;;9.20;;
86007;SDS011;76587;41.936;25.550;2024-03-23T08:59:52;9.45;;;8.45;;
86007;SDS011;76587;41.936;25.550;2024-03-23T09:02:17;11.38;;;9.43;;
86007;SDS011;76587;41.936;25.550;2024-03-23T09:04:43;12.00;;;8.70;;
86007;SDS011;76587;41.936;25.550;2024-03-23T09:07:09;14.15;;;9.38;;
86007;SDS011;76587;41.936;25.550;2024-03-23T09:09:35;13.20;;;9.07;;
86007;SDS011;76587;41.936;25.550;2024-03-23T09:12:06;12.25;;;8.57;;
86007;SDS011;76587;41.936;25.550;2024-03-23T09:14:33;11.77;;;9.13;;
86007;SDS011;76587;41.936;25.550;2024-03-23T09:17:02;9.90;;;8.93;;
86007;SDS011;76587;41.936;25.550;2024-03-23T09:19:28;9.93;;;8.73;;
86007;SDS011;76587;41.936;25.550;2024-03-23T09:21:54;13.93;;;8.13;;
86007;SDS011;76587;41.936;25.550;2024-03-23T09:24:20;9.43;;;7.78;;
86007;SDS011;76587;41.936;25.550;2024-03-23T09:26:46;12.90;;;7.97;;
86007;SDS011;76587;41.936;25.550;2024-03-23T09:29:11;9.82;;;8.02;;
86007;SDS011;76587;41.936;25.550;2024-03-23T09:31:37;12.25;;;8.48;;
86007;SDS011;76587;41.936;25.550;2024-03-23T09:34:03;12.18;;;9.55;;
86007;SDS011;76587;41.936;25.550;2024-03-23T09:36:32;14.68;;;10.27;;
86007;SDS011;76587;41.936;25.550;2024-03-23T09:38:57;12.93;;;9.20;;
86007;SDS011;76587;41.936;25.550;2024-03-23T09:41:22;11.10;;;9.52;;
86007;SDS011;76587;41.936;25.550;2024-03-23T09:43:48;12.35;;;8.73;;
86007;SDS011;76587;41.936;25.550;2024-03-23T09:46:17;10.73;;;8.73;;
86007;SDS011;76587;41.936;25.550;2024-03-23T09:48:42;11.02;;;9.77;;
86007;SDS011;76587;41.936;25.550;2024-03-23T09:51:11;11.98;;;7.82;;
86007;SDS011;76587;41.936;25.550;2024-03-23T09:53:36;9.82;;;7.25;;
86007;SDS011;76587;41.936;25.550;2024-03-23T09:56:07;10.57;;;7.78;;
86007;SDS011;76587;41.936;25.550;2024-03-23T09:58:36;10.00;;;7.05;;
86007;SDS011;76587;41.936;25.550;2024-03-23T10:01:04;11.68;;;7.80;;
86007;SDS011;76587;41.936;25.550;2024-03-23T10:03:30;11.75;;;7.60;;
86007;SDS011;76587;41.936;25.550;2024-03-23T10:06:02;10.07;;;7.47;;
86007;SDS011;76587;41.936;25.550;2024-03-23T10:08:29;9.73;;;7.85;;
86007;SDS011;76587;41.936;25.550;2024-03-23T10:10:55;11.00;;;7.43;;
86007;SDS011;76587;41.936;25.550;2024-03-23T10:13:24;8.88;;;7.20;;
86007;SDS011;76587;41.936;25.550;2024-03-23T10:15:57;8.68;;;6.10;;
86007;SDS011;76587;41.936;25.550;2024-03-23T10:18:23;11.65;;;6.80;;
86007;SDS011;76587;41.936;25.550;2024-03-23T10:23:31;10.40;;;6.28;;
86007;SDS011;76587;41.936;25.550;2024-03-23T10:28:59;6.63;;;4.78;;
86007;SDS011;76587;41.936;25.550;2024-03-23T10:31:29;7.07;;;5.43;;
86007;SDS011;76587;41.936;25.550;2024-03-23T10:33:56;7.35;;;5.03;;
86007;SDS011;76587;41.936;25.550;2024-03-23T10:36:22;5.97;;;4.82;;
86007;SDS011;76587;41.936;25.550;2024-03-23T10:38:49;6.70;;;4.70;;
86007;SDS011;76587;41.936;25.550;2024-03-23T10:41:17;7.63;;;5.13;;
86007;SDS011;76587;41.936;25.550;2024-03-23T10:43:43;7.63;;;4.45;;
86007;SDS011;76587;41.936;25.550;2024-03-23T10:46:10;7.05;;;5.28;;
86007;SDS011;76587;41.936;25.550;2024-03-23T10:48:36;8.50;;;5.28;;
86007;SDS011;76587;41.936;25.550;2024-03-23T10:51:01;8.48;;;5.18;;
86007;SDS011;76587;41.936;25.550;2024-03-23T10:53:27;7.25;;;5.88;;
86007;SDS011;76587;41.936;25.550;2024-03-23T10:55:54;10.05;;;5.45;;
86007;SDS011;76587;41.936;25.550;2024-03-23T10:58:43;9.63;;;5.63;;
86007;SDS011;76587;41.936;25.550;2024-03-23T11:01:15;9.73;;;5.80;;
86007;SDS011;76587;41.936;25.550;2024-03-23T11:03:44;8.40;;;4.80;;
86007;SDS011;76587;41.936;25.550;2024-03-23T11:06:11;10.38;;;5.20;;
86007;SDS011;76587;41.936;25.550;2024-03-23T11:12:36;7.82;;;4.20;;
86007;SDS011;76587;41.936;25.550;2024-03-23T11:15:05;7.47;;;4.05;;
86007;SDS011;76587;41.936;25.550;2024-03-23T11:17:36;9.25;;;5.03;;
86007;SDS011;76587;41.936;25.550;2024-03-23T11:20:03;5.70;;;3.90;;
86007;SDS011;76587;41.936;25.550;2024-03-23T11:22:43;8.18;;;4.20;;
86007;SDS011;76587;41.936;25.550;2024-03-23T11:27:47;5.38;;;3.17;;
86007;SDS011;76587;41.936;25.550;2024-03-23T11:32:44;6.07;;;3.47;;
86007;SDS011;76587;41.936;25.550;2024-03-23T11:35:11;6.28;;;3.22;;
86007;SDS011;76587;41.936;25.550;2024-03-23T11:38:09;6.10;;;3.28;;
86007;SDS011;76587;41.936;25.550;2024-03-23T11:40:35;7.75;;;4.43;;
86007;SDS011;76587;41.936;25.550;2024-03-23T11:43:03;6.55;;;3.15;;
86007;SDS011;76587;41.936;25.550;2024-03-23T11:45:35;6.22;;;2.95;;
86007;SDS011;76587;41.936;25.550;2024-03-23T11:48:02;11.00;;;3.35;;
86007;SDS011;76587;41.936;25.550;2024-03-23T11:50:32;4.55;;;2.92;;
86007;SDS011;76587;41.936;25.550;2024-03-23T11:53:17;8.45;;;3.35;;
86007;SDS011;76587;41.936;25.550;2024-03-23T11:55:45;9.55;;;3.92;;
86007;SDS011;76587;41.936;25.550;2024-03-23T11:58:25;13.27;;;5.55;;
86007;SDS011;76587;41.936;25.550;2024-03-23T12:03:22;4.50;;;3.13;;
86007;SDS011;76587;41.936;25.550;2024-03-23T12:05:54;6.80;;;2.60;;
86007;SDS011;76587;41.936;25.550;2024-03-23T12:08:24;7.20;;;3.28;;
86007;SDS011;76587;41.936;25.550;2024-03-23T12:13:40;5.07;;;2.72;;
86007;SDS011;76587;41.936;25.550;2024-03-23T12:16:10;8.52;;;2.80;;
86007;SDS011;76587;41.936;25.550;2024-03-23T12:18:40;8.05;;;3.35;;
86007;SDS011;76587;41.936;25.550;2024-03-23T12:21:07;5.72;;;3.10;;
86007;SDS011;76587;41.936;25.550;2024-03-23T12:23:33;8.60;;;4.78;;
86007;SDS011;76587;41.936;25.550;2024-03-23T12:25:59;5.75;;;3.30;;
86007;SDS011;76587;41.936;25.550;2024-03-23T12:28:25;4.90;;;2.92;;
86007;SDS011;76587;41.936;25.550;2024-03-23T12:30:50;4.93;;;2.75;;
86007;SDS011;76587;41.936;25.550;2024-03-23T12:33:18;5.38;;;2.50;;
86007;SDS011;76587;41.936;25.550;2024-03-23T12:35:43;6.97;;;2.83;;
86007;SDS011;76587;41.936;25.550;2024-03-23T12:38:09;8.20;;;4.15;;
86007;SDS011;76587;41.936;25.550;2024-03-23T12:40:34;13.20;;;5.78;;
86007;SDS011;76587;41.936;25.550;2024-03-23T12:43:00;4.10;;;2.42;;
86007;SDS011;76587;41.936;25.550;2024-03-23T12:45:27;6.03;;;2.30;;
86007;SDS011;76587;41.936;25.550;2024-03-23T12:47:53;4.68;;;2.47;;
86007;SDS011;76587;41.936;25.550;2024-03-23T12:50:19;4.35;;;2.55;;
86007;SDS011;76587;41.936;25.550;2024-03-23T12:52:44;4.45;;;2.45;;
86007;SDS011;76587;41.936;25.550;2024-03-23T12:55:10;5.57;;;2.17;;
86007;SDS011;76587;41.936;25.550;2024-03-23T12:57:39;7.25;;;3.10;;
86007;SDS011;76587;41.936;25.550;2024-03-23T13:00:05;7.20;;;3.92;;
86007;SDS011;76587;41.936;25.550;2024-03-23T13:02:31;5.90;;;3.20;;
86007;SDS011;76587;41.936;25.550;2024-03-23T13:04:59;5.32;;;2.55;;
86007;SDS011;76587;41.936;25.550;2024-03-23T13:07:25;3.92;;;2.80;;
86007;SDS011;76587;41.936;25.550;2024-03-23T13:09:51;5.22;;;2.55;;
86007;SDS011;76587;41.936;25.550;2024-03-23T13:12:17;6.25;;;2.85;;
86007;SDS011;76587;41.936;25.550;2024-03-23T13:14:44;4.28;;;2.10;;
86007;SDS011;76587;41.936;25.550;2024-03-23T13:17:10;4.88;;;2.42;;
86007;SDS011;76587;41.936;25.550;2024-03-23T13:19:35;4.45;;;2.20;;
86007;SDS011;76587;41.936;25.550;2024-03-23T13:22:01;5.43;;;2.45;;
86007;SDS011;76587;41.936;25.550;2024-03-23T13:24:29;6.18;;;2.42;;
86007;SDS011;76587;41.936;25.550;2024-03-23T13:26:55;4.70;;;2.70;;
86007;SDS011;76587;41.936;25.550;2024-03-23T13:29:22;4.18;;;2.28;;
86007;SDS011;76587;41.936;25.550;2024-03-23T13:31:49;5.55;;;2.97;;
86007;SDS011;76587;41.936;25.550;2024-03-23T13:34:15;5.65;;;2.38;;
86007;SDS011;76587;41.936;25.550;2024-03-23T13:36:41;4.10;;;2.20;;
86007;SDS011;76587;41.936;25.550;2024-03-23T13:39:08;4.78;;;1.90;;
86007;SDS011;76587;41.936;25.550;2024-03-23T13:41:37;5.43;;;2.10;;
86007;SDS011;76587;41.936;25.550;2024-03-23T13:44:06;5.32;;;2.58;;
86007;SDS011;76587;41.936;25.550;2024-03-23T13:46:32;5.57;;;2.30;;
86007;SDS011;76587;41.936;25.550;2024-03-23T13:48:59;6.90;;;2.50;;
86007;SDS011;76587;41.936;25.550;2024-03-23T13:51:25;4.80;;;2.13;;
86007;SDS011;76587;41.936;25.550;2024-03-23T13:56:21;5.93;;;1.98;;
86007;SDS011;76587;41.936;25.550;2024-03-23T13:58:49;3.95;;;2.22;;
86007;SDS011;76587;41.936;25.550;2024-03-23T14:01:15;5.93;;;2.22;;
86007;SDS011;76587;41.936;25.550;2024-03-23T14:03:44;5.50;;;3.22;;
86007;SDS011;76587;41.936;25.550;2024-03-23T14:06:10;5.80;;;2.17;;
86007;SDS011;76587;41.936;25.550;2024-03-23T14:08:36;4.13;;;1.52;;
86007;SDS011;76587;41.936;25.550;2024-03-23T14:11:04;5.28;;;2.50;;
86007;SDS011;76587;41.936;25.550;2024-03-23T14:13:36;4.72;;;2.05;;
86007;SDS011;76587;41.936;25.550;2024-03-23T14:16:04;7.63;;;2.53;;
86007;SDS011;76587;41.936;25.550;2024-03-23T14:18:30;5.38;;;2.38;;
86007;SDS011;76587;41.936;25.550;2024-03-23T14:20:56;3.30;;;1.75;;
86007;SDS011;76587;41.936;25.550;2024-03-23T14:23:26;3.95;;;1.70;;
86007;SDS011;76587;41.936;25.550;2024-03-23T14:25:53;5.97;;;2.00;;
86007;SDS011;76587;41.936;25.550;2024-03-23T14:28:19;3.70;;;1.60;;
86007;SDS011;76587;41.936;25.550;2024-03-23T14:30:45;3.25;;;1.73;;
86007;SDS011;76587;41.936;25.550;2024-03-23T14:33:13;4.72;;;1.90;;
86007;SDS011;76587;41.936;25.550;2024-03-23T14:35:41;6.22;;;1.80;;
86007;SDS011;76587;41.936;25.550;2024-03-23T14:38:21;4.43;;;1.70;;
86007;SDS011;76587;41.936;25.550;2024-03-23T14:40:49;5.40;;;2.17;;
86007;SDS011;76587;41.936;25.550;2024-03-23T14:43:14;4.65;;;1.70;;
86007;SDS011;76587;41.936;25.550;2024-03-23T14:48:30;4.05;;;1.90;;
86007;SDS011;76587;41.936;25.550;2024-03-23T14:50:56;7.15;;;1.90;;
86007;SDS011;76587;41.936;25.550;2024-03-23T14:53:24;4.53;;;2.10;;
86007;SDS011;76587;41.936;25.550;2024-03-23T14:55:49;3.72;;;1.58;;
86007;SDS011;76587;41.936;25.550;2024-03-23T14:58:15;3.45;;;1.73;;
86007;SDS011;76587;41.936;25.550;2024-03-23T15:00:41;6.63;;;2.13;;
86007;SDS011;76587;41.936;25.550;2024-03-23T15:03:06;4.20;;;2.22;;
86007;SDS011;76587;41.936;25.550;2024-03-23T15:05:34;6.85;;;1.77;;
86007;SDS011;76587;41.936;25.550;2024-03-23T15:07:59;8.00;;;2.20;;
86007;SDS011;76587;41.936;25.550;2024-03-23T15:10:24;3.80;;;2.15;;
86007;SDS011;76587;41.936;25.550;2024-03-23T15:12:50;5.63;;;2.28;;
86007;SDS011;76587;41.936;25.550;2024-03-23T15:15:16;4.15;;;2.30;;
86007;SDS011;76587;41.936;25.550;2024-03-23T15:17:41;3.42;;;1.77;;
86007;SDS011;76587;41.936;25.550;2024-03-23T15:20:09;3.85;;;2.00;;
86007;SDS011;76587;41.936;25.550;2024-03-23T15:22:36;4.35;;;2.25;;
86007;SDS011;76587;41.936;25.550;2024-03-23T15:25:02;3.47;;;1.65;;
86007;SDS011;76587;41.936;25.550;2024-03-23T15:27:31;6.18;;;2.17;;
86007;SDS011;76587;41.936;25.550;2024-03-23T15:29:56;4.47;;;1.65;;
86007;SDS011;76587;41.936;25.550;2024-03-23T15:32:22;4.40;;;3.00;;
86007;SDS011;76587;41.936;25.550;2024-03-23T15:34:48;4.85;;;2.20;;
86007;SDS011;76587;41.936;25.550;2024-03-23T15:37:13;6.38;;;2.95;;
86007;SDS011;76587;41.936;25.550;2024-03-23T15:39:40;5.13;;;2.00;;
86007;SDS011;76587;41.936;25.550;2024-03-23T15:42:06;3.90;;;1.73;;
86007;SDS011;76587;41.936;25.550;2024-03-23T15:44:32;3.67;;;1.60;;
86007;SDS011;76587;41.936;25.550;2024-03-23T15:46:58;4.18;;;2.20;;